NORTHEAST SUFFOLK  -  Rip Current Statement Rip Current Statement        NORTHERN NASSAU  -  Rip Current Statement Rip Current Statement        NORTHERN QUEENS  -  Rip Current Statement Rip Current Statement        NORTHWEST SUFFOLK  -  Rip Current Statement Rip Current Statement        SOUTHEAST SUFFOLK  -  Rip Current Statement Rip Current Statement        SOUTHERN NASSAU  -  Rip Current Statement Rip Current Statement        SOUTHERN QUEENS  -  Rip Current Statement Rip Current Statement        SOUTHWEST SUFFOLK  -  Rip Current Statement Rip Current Statement      

Active alerts

Northern Queens
  Details for Northern Queens Rip Current Statement
Southern Queens
  Details for Southern Queens Rip Current Statement
Northern Nassau
  Details for Northern Nassau Rip Current Statement
Southern Nassau
  Details for Southern Nassau Rip Current Statement
Northwest Suffolk
  Details for Northwest Suffolk Rip Current Statement
Southwest Suffolk
  Details for Southwest Suffolk Rip Current Statement
Northeast Suffolk
  Details for Northeast Suffolk Rip Current Statement
Southeast Suffolk
  Details for Southeast Suffolk Rip Current Statement


WXM80 ListenWXM80 Stop

You find our weather info also at:

UK Metoffice

WeatherCloud

Weather Underground

Northeastern Weather Network

AWEKAS

Citizen Weather Observer Program (CWOP)

HAMweather, WeatherForYou, PWS Weather


Weather Underground History page Text

Daily Summary for August 17, 2017 Units:  Both    English   Metric
« Previous Day
Next Day »
Daily Weekly Monthly Yearly Custom
  High: Low: Average:
Temperature: 82.1 °F /  27.8 °C 68.6 °F /  20.3 °C 74.4 °F /  23.6 °C
Dew Point: 68.4 °F /  20.2 °C 60.2 °F /  15.7 °C 63.7 °F /  17.6 °C
Humidity: 93 % 48 % 71 %
Wind Speed: 5.0 mph /  8 km/h - 1.5 mph /  2.4 km/h
Wind Gust: 10.4 mph /  16.7 km/h - -
Wind:- - ENE
Pressure: 30.03 in /  1016.8 hPa 29.92 in /  1013.1 hPa -
Precipitation: 0.00 in /  0 mm    
Historical Graphs
 
 
Tabular Data for August 17, 2017
Time Temperature Dew Point Pressure Wind Wind Speed Wind Gust Humidity Rainfall Rate (Hourly)
00:04 70.5 °F /  21.4 °C 66.8 °F /  19.3 °C 29.97 in /  1014.8 hPa Calm     88 % 0.00 in /  0 mm
00:09 70.5 °F /  21.4 °C 66.8 °F /  19.3 °C 29.97 in /  1014.8 hPa Calm     88 % 0.00 in /  0 mm
00:14 70.5 °F /  21.4 °C 67.1 °F /  19.5 °C 29.97 in /  1014.8 hPa Calm     89 % 0.00 in /  0 mm
00:19 70.4 °F /  21.3 °C 66.7 °F /  19.3 °C 29.97 in /  1014.8 hPa Calm     88 % 0.00 in /  0 mm
00:25 70.3 °F /  21.3 °C 66.6 °F /  19.2 °C 29.97 in /  1014.8 hPa Calm     88 % 0.00 in /  0 mm
00:30 70.3 °F /  21.3 °C 66.6 °F /  19.2 °C 29.97 in /  1014.8 hPa Calm     88 % 0.00 in /  0 mm
00:35 70.2 °F /  21.2 °C 66.5 °F /  19.2 °C 29.97 in /  1014.8 hPa Calm   1.2 mph /  1.9 km/h 88 % 0.00 in /  0 mm
00:40 70.1 °F /  21.2 °C 66.4 °F /  19.1 °C 29.97 in /  1014.8 hPa Calm     88 % 0.00 in /  0 mm
00:45 70.0 °F /  21.1 °C 66.6 °F /  19.2 °C 29.97 in /  1014.8 hPa Calm     89 % 0.00 in /  0 mm
00:50 70.0 °F /  21.1 °C 66.6 °F /  19.2 °C 29.96 in /  1014.4 hPa Calm     89 % 0.00 in /  0 mm
00:55 69.9 °F /  21.1 °C 66.5 °F /  19.2 °C 29.97 in /  1014.8 hPa Calm     89 % 0.00 in /  0 mm
01:00 69.8 °F /  21 °C 66.4 °F /  19.1 °C 29.97 in /  1014.8 hPa Calm     89 % 0.00 in /  0 mm
01:05 69.6 °F /  20.9 °C 65.6 °F /  18.7 °C 29.97 in /  1014.8 hPa North 3.0 mph /  4.8 km/h 4.6 mph /  7.4 km/h 87 % 0.00 in /  0 mm
01:10 69.5 °F /  20.8 °C 65.1 °F /  18.4 °C 29.97 in /  1014.8 hPa NNE 3.9 mph /  6.3 km/h 5.0 mph /  8 km/h 86 % 0.00 in /  0 mm
01:15 69.5 °F /  20.8 °C 64.8 °F /  18.2 °C 29.97 in /  1014.8 hPa NNE 4.0 mph /  6.4 km/h 6.9 mph /  11.1 km/h 85 % 0.00 in /  0 mm
01:20 69.7 °F /  20.9 °C 64.3 °F /  17.9 °C 29.98 in /  1015.1 hPa NNE 3.8 mph /  6.1 km/h 5.8 mph /  9.3 km/h 83 % 0.00 in /  0 mm
01:25 69.8 °F /  21 °C 64.4 °F /  18 °C 29.97 in /  1014.8 hPa NNE 2.9 mph /  4.7 km/h 5.8 mph /  9.3 km/h 83 % 0.00 in /  0 mm
01:30 70.1 °F /  21.2 °C 64.0 °F /  17.8 °C 29.97 in /  1014.8 hPa North 3.8 mph /  6.1 km/h 6.9 mph /  11.1 km/h 81 % 0.00 in /  0 mm
01:35 70.3 °F /  21.3 °C 64.5 °F /  18.1 °C 29.97 in /  1014.8 hPa NNE 3.8 mph /  6.1 km/h 6.0 mph /  9.7 km/h 82 % 0.00 in /  0 mm
01:40 70.5 °F /  21.4 °C 64.4 °F /  18 °C 29.97 in /  1014.8 hPa NNE 3.1 mph /  5 km/h 4.6 mph /  7.4 km/h 81 % 0.00 in /  0 mm
01:45 70.6 °F /  21.4 °C 64.1 °F /  17.8 °C 29.98 in /  1015.1 hPa NNE 2.4 mph /  3.9 km/h 5.8 mph /  9.3 km/h 80 % 0.00 in /  0 mm
01:51 70.8 °F /  21.6 °C 64.3 °F /  17.9 °C 29.98 in /  1015.1 hPa NNE 3.1 mph /  5 km/h 5.8 mph /  9.3 km/h 80 % 0.00 in /  0 mm
01:56 70.9 °F /  21.6 °C 64.1 °F /  17.8 °C 29.98 in /  1015.1 hPa NE 3.6 mph /  5.8 km/h 6.0 mph /  9.7 km/h 79 % 0.00 in /  0 mm
02:01 71.0 °F /  21.7 °C 64.2 °F /  17.9 °C 29.98 in /  1015.1 hPa North 3.0 mph /  4.8 km/h 4.6 mph /  7.4 km/h 79 % 0.00 in /  0 mm
02:02 71.1 °F /  21.7 °C 64.3 °F /  17.9 °C 29.98 in /  1015.1 hPa NNE 2.5 mph /  4 km/h 3.5 mph /  5.6 km/h 79 % 0.00 in /  0 mm
02:07 71.1 °F /  21.7 °C 64.3 °F /  17.9 °C 29.98 in /  1015.1 hPa North 1.5 mph /  2.4 km/h 3.5 mph /  5.6 km/h 79 % 0.00 in /  0 mm
02:12 71.2 °F /  21.8 °C 64.4 °F /  18 °C 29.97 in /  1014.8 hPa NNE 1.5 mph /  2.4 km/h 3.5 mph /  5.6 km/h 79 % 0.00 in /  0 mm
02:17 71.2 °F /  21.8 °C 63.6 °F /  17.6 °C 29.98 in /  1015.1 hPa North 2.6 mph /  4.2 km/h 6.9 mph /  11.1 km/h 77 % 0.00 in /  0 mm
02:22 71.2 °F /  21.8 °C 63.2 °F /  17.3 °C 29.97 in /  1014.8 hPa NNE 1.7 mph /  2.7 km/h 3.5 mph /  5.6 km/h 76 % 0.00 in /  0 mm
02:27 71.2 °F /  21.8 °C 62.9 °F /  17.2 °C 29.97 in /  1014.8 hPa NE 2.9 mph /  4.7 km/h 5.0 mph /  8 km/h 75 % 0.00 in /  0 mm
02:32 71.2 °F /  21.8 °C 62.5 °F /  16.9 °C 29.97 in /  1014.8 hPa NE 1.8 mph /  2.9 km/h 3.5 mph /  5.6 km/h 74 % 0.00 in /  0 mm
02:38 71.1 °F /  21.7 °C 62.4 °F /  16.9 °C 29.97 in /  1014.8 hPa NNE 1.9 mph /  3.1 km/h 4.0 mph /  6.4 km/h 74 % 0.00 in /  0 mm
02:43 71.1 °F /  21.7 °C 62.0 °F /  16.7 °C 29.97 in /  1014.8 hPa NNE 3.0 mph /  4.8 km/h 5.0 mph /  8 km/h 73 % 0.00 in /  0 mm
02:48 71.1 °F /  21.7 °C 61.6 °F /  16.4 °C 29.97 in /  1014.8 hPa NNE 4.2 mph /  6.8 km/h 5.8 mph /  9.3 km/h 72 % 0.00 in /  0 mm
02:53 71.1 °F /  21.7 °C 61.6 °F /  16.4 °C 29.97 in /  1014.8 hPa NNE 3.4 mph /  5.5 km/h 5.8 mph /  9.3 km/h 72 % 0.00 in /  0 mm
02:58 71.1 °F /  21.7 °C 62.0 °F /  16.7 °C 29.97 in /  1014.8 hPa NNE 1.4 mph /  2.3 km/h 3.5 mph /  5.6 km/h 73 % 0.00 in /  0 mm
03:03 71.0 °F /  21.7 °C 61.9 °F /  16.6 °C 29.97 in /  1014.8 hPa NNE 3.6 mph /  5.8 km/h 4.6 mph /  7.4 km/h 73 % 0.00 in /  0 mm
03:08 71.0 °F /  21.7 °C 61.5 °F /  16.4 °C 29.97 in /  1014.8 hPa North 2.0 mph /  3.2 km/h 4.6 mph /  7.4 km/h 72 % 0.00 in /  0 mm
03:13 70.9 °F /  21.6 °C 61.0 °F /  16.1 °C 29.97 in /  1014.8 hPa NNE 3.8 mph /  6.1 km/h 6.9 mph /  11.1 km/h 71 % 0.00 in /  0 mm
03:18 70.8 °F /  21.6 °C 60.9 °F /  16.1 °C 29.97 in /  1014.8 hPa NNE 0.7 mph /  1.1 km/h 2.3 mph /  3.7 km/h 71 % 0.00 in /  0 mm
03:23 70.8 °F /  21.6 °C 61.3 °F /  16.3 °C 29.97 in /  1014.8 hPa NE 2.1 mph /  3.4 km/h 4.0 mph /  6.4 km/h 72 % 0.00 in /  0 mm
03:28 70.8 °F /  21.6 °C 61.3 °F /  16.3 °C 29.97 in /  1014.8 hPa NNE 0.7 mph /  1.1 km/h 3.5 mph /  5.6 km/h 72 % 0.00 in /  0 mm
03:33 70.7 °F /  21.5 °C 61.2 °F /  16.2 °C 29.98 in /  1015.1 hPa NNE 2.9 mph /  4.7 km/h 4.6 mph /  7.4 km/h 72 % 0.00 in /  0 mm
03:38 70.6 °F /  21.4 °C 61.1 °F /  16.2 °C 29.97 in /  1014.8 hPa NNE 2.3 mph /  3.7 km/h 4.6 mph /  7.4 km/h 72 % 0.00 in /  0 mm
03:44 70.4 °F /  21.3 °C 60.9 °F /  16.1 °C 29.97 in /  1014.8 hPa North 0.7 mph /  1.1 km/h 3.0 mph /  4.8 km/h 72 % 0.00 in /  0 mm
03:49 70.4 °F /  21.3 °C 60.9 °F /  16.1 °C 29.97 in /  1014.8 hPa North 2.7 mph /  4.3 km/h 3.5 mph /  5.6 km/h 72 % 0.00 in /  0 mm
03:54 70.2 °F /  21.2 °C 60.4 °F /  15.8 °C 29.97 in /  1014.8 hPa NNE 2.7 mph /  4.3 km/h 4.6 mph /  7.4 km/h 71 % 0.00 in /  0 mm
03:59 70.1 °F /  21.2 °C 60.3 °F /  15.7 °C 29.98 in /  1015.1 hPa NNE 1.7 mph /  2.7 km/h 4.6 mph /  7.4 km/h 71 % 0.00 in /  0 mm
04:04 70.1 °F /  21.2 °C 60.7 °F /  15.9 °C 29.97 in /  1014.8 hPa NNE 2.8 mph /  4.5 km/h 5.8 mph /  9.3 km/h 72 % 0.00 in /  0 mm
04:09 70.0 °F /  21.1 °C 60.9 °F /  16.1 °C 29.97 in /  1014.8 hPa NNE 3.0 mph /  4.8 km/h 4.6 mph /  7.4 km/h 73 % 0.00 in /  0 mm
04:14 70.0 °F /  21.1 °C 61.3 °F /  16.3 °C 29.97 in /  1014.8 hPa NNE 1.1 mph /  1.8 km/h 3.5 mph /  5.6 km/h 74 % 0.00 in /  0 mm
04:19 69.9 °F /  21.1 °C 61.2 °F /  16.2 °C 29.97 in /  1014.8 hPa NNE 3.4 mph /  5.5 km/h 4.6 mph /  7.4 km/h 74 % 0.00 in /  0 mm
04:24 69.7 °F /  20.9 °C 61.0 °F /  16.1 °C 29.97 in /  1014.8 hPa North 2.1 mph /  3.4 km/h 3.5 mph /  5.6 km/h 74 % 0.00 in /  0 mm
04:29 69.6 °F /  20.9 °C 60.9 °F /  16.1 °C 29.97 in /  1014.8 hPa NNE 2.0 mph /  3.2 km/h 3.5 mph /  5.6 km/h 74 % 0.00 in /  0 mm
04:34 69.5 °F /  20.8 °C 61.6 °F /  16.4 °C 29.97 in /  1014.8 hPa North 4.0 mph /  6.4 km/h 5.0 mph /  8 km/h 76 % 0.00 in /  0 mm
04:39 69.4 °F /  20.8 °C 61.9 °F /  16.6 °C 29.97 in /  1014.8 hPa NNE 2.2 mph /  3.5 km/h 3.5 mph /  5.6 km/h 77 % 0.00 in /  0 mm
04:44 69.3 °F /  20.7 °C 62.1 °F /  16.7 °C 29.97 in /  1014.8 hPa NNE 0.7 mph /  1.1 km/h 3.5 mph /  5.6 km/h 78 % 0.00 in /  0 mm
04:49 69.2 °F /  20.7 °C 61.7 °F /  16.5 °C 29.97 in /  1014.8 hPa North 1.9 mph /  3.1 km/h 3.5 mph /  5.6 km/h 77 % 0.00 in /  0 mm
04:54 69.1 °F /  20.6 °C 61.6 °F /  16.4 °C 29.97 in /  1014.8 hPa NE 0.3 mph /  0.5 km/h 3.5 mph /  5.6 km/h 77 % 0.00 in /  0 mm
04:59 69.0 °F /  20.6 °C 61.5 °F /  16.4 °C 29.98 in /  1015.1 hPa NE 1.4 mph /  2.3 km/h 4.6 mph /  7.4 km/h 77 % 0.00 in /  0 mm
05:04 68.8 °F /  20.4 °C 60.9 °F /  16.1 °C 29.98 in /  1015.1 hPa NE 1.7 mph /  2.7 km/h 6.9 mph /  11.1 km/h 76 % 0.00 in /  0 mm
05:09 68.7 °F /  20.4 °C 60.8 °F /  16 °C 29.98 in /  1015.1 hPa ENE 2.5 mph /  4 km/h 6.9 mph /  11.1 km/h 76 % 0.00 in /  0 mm
05:14 68.6 °F /  20.3 °C 60.4 °F /  15.8 °C 29.98 in /  1015.1 hPa NE 1.0 mph /  1.6 km/h 3.5 mph /  5.6 km/h 75 % 0.00 in /  0 mm
05:20 68.7 °F /  20.4 °C 60.5 °F /  15.8 °C 29.98 in /  1015.1 hPa NE 1.1 mph /  1.8 km/h 3.5 mph /  5.6 km/h 75 % 0.00 in /  0 mm
05:25 68.8 °F /  20.4 °C 60.9 °F /  16.1 °C 29.98 in /  1015.1 hPa NE 2.5 mph /  4 km/h 4.6 mph /  7.4 km/h 76 % 0.00 in /  0 mm
05:30 68.8 °F /  20.4 °C 60.6 °F /  15.9 °C 29.98 in /  1015.1 hPa NNE 1.9 mph /  3.1 km/h 6.9 mph /  11.1 km/h 75 % 0.00 in /  0 mm
05:35 68.9 °F /  20.5 °C 61.0 °F /  16.1 °C 29.99 in /  1015.5 hPa NE 0.7 mph /  1.1 km/h 3.5 mph /  5.6 km/h 76 % 0.00 in /  0 mm
05:40 69.0 °F /  20.6 °C 61.5 °F /  16.4 °C 29.99 in /  1015.5 hPa NE 3.2 mph /  5.1 km/h 4.6 mph /  7.4 km/h 77 % 0.00 in /  0 mm
05:45 69.0 °F /  20.6 °C 61.5 °F /  16.4 °C 29.98 in /  1015.1 hPa NE 1.3 mph /  2.1 km/h 4.6 mph /  7.4 km/h 77 % 0.00 in /  0 mm
05:50 69.0 °F /  20.6 °C 61.5 °F /  16.4 °C 29.99 in /  1015.5 hPa ENE 2.5 mph /  4 km/h 7.0 mph /  11.3 km/h 77 % 0.00 in /  0 mm
05:55 69.0 °F /  20.6 °C 61.1 °F /  16.2 °C 29.99 in /  1015.5 hPa NE 1.7 mph /  2.7 km/h 3.5 mph /  5.6 km/h 76 % 0.00 in /  0 mm
06:00 69.0 °F /  20.6 °C 61.5 °F /  16.4 °C 29.99 in /  1015.5 hPa ENE 1.6 mph /  2.6 km/h 4.0 mph /  6.4 km/h 77 % 0.00 in /  0 mm
06:05 68.9 °F /  20.5 °C 61.4 °F /  16.3 °C 29.99 in /  1015.5 hPa NE 2.0 mph /  3.2 km/h 3.5 mph /  5.6 km/h 77 % 0.00 in /  0 mm
06:10 68.8 °F /  20.4 °C 61.3 °F /  16.3 °C 29.99 in /  1015.5 hPa NE 1.0 mph /  1.6 km/h 2.3 mph /  3.7 km/h 77 % 0.00 in /  0 mm
06:15 68.8 °F /  20.4 °C 61.3 °F /  16.3 °C 29.99 in /  1015.5 hPa NE 2.0 mph /  3.2 km/h 4.6 mph /  7.4 km/h 77 % 0.00 in /  0 mm
06:20 68.7 °F /  20.4 °C 61.2 °F /  16.2 °C 29.99 in /  1015.5 hPa North 1.5 mph /  2.4 km/h 9.2 mph /  14.8 km/h 77 % 0.00 in /  0 mm
06:25 68.7 °F /  20.4 °C 61.6 °F /  16.4 °C 30.00 in /  1015.8 hPa NE 1.6 mph /  2.6 km/h 6.9 mph /  11.1 km/h 78 % 0.00 in /  0 mm
06:31 68.6 °F /  20.3 °C 61.5 °F /  16.4 °C 30.00 in /  1015.8 hPa ENE 1.7 mph /  2.7 km/h 3.5 mph /  5.6 km/h 78 % 0.00 in /  0 mm
06:36 68.6 °F /  20.3 °C 61.5 °F /  16.4 °C 30.00 in /  1015.8 hPa ENE 3.0 mph /  4.8 km/h 8.0 mph /  12.9 km/h 78 % 0.00 in /  0 mm
06:41 68.6 °F /  20.3 °C 61.1 °F /  16.2 °C 30.00 in /  1015.8 hPa ENE 3.0 mph /  4.8 km/h 8.0 mph /  12.9 km/h 77 % 0.00 in /  0 mm
06:46 68.8 °F /  20.4 °C 61.3 °F /  16.3 °C 30.00 in /  1015.8 hPa NE 3.0 mph /  4.8 km/h 7.0 mph /  11.3 km/h 77 % 0.00 in /  0 mm
06:51 68.9 °F /  20.5 °C 61.4 °F /  16.3 °C 30.00 in /  1015.8 hPa NE 3.0 mph /  4.8 km/h 5.0 mph /  8 km/h 77 % 0.00 in /  0 mm
06:53 69.0 °F /  20.6 °C 61.5 °F /  16.4 °C 30.00 in /  1015.8 hPa NE 0.1 mph /  0.2 km/h 2.3 mph /  3.7 km/h 77 % 0.00 in /  0 mm
06:58 69.1 °F /  20.6 °C 61.2 °F /  16.2 °C 30.01 in /  1016.1 hPa NE 2.5 mph /  4 km/h 4.6 mph /  7.4 km/h 76 % 0.00 in /  0 mm
07:03 69.2 °F /  20.7 °C 61.7 °F /  16.5 °C 30.01 in /  1016.1 hPa East 2.7 mph /  4.3 km/h 4.0 mph /  6.4 km/h 77 % 0.00 in /  0 mm
07:08 69.3 °F /  20.7 °C 61.4 °F /  16.3 °C 30.01 in /  1016.1 hPa NE 2.3 mph /  3.7 km/h 6.9 mph /  11.1 km/h 76 % 0.00 in /  0 mm
07:13 69.3 °F /  20.7 °C 61.8 °F /  16.6 °C 30.01 in /  1016.1 hPa NE 1.7 mph /  2.7 km/h 3.5 mph /  5.6 km/h 77 % 0.00 in /  0 mm
07:18 69.4 °F /  20.8 °C 61.9 °F /  16.6 °C 30.02 in /  1016.5 hPa NE 3.7 mph /  6 km/h 7.0 mph /  11.3 km/h 77 % 0.00 in /  0 mm
07:23 69.5 °F /  20.8 °C 62.0 °F /  16.7 °C 30.02 in /  1016.5 hPa NE 2.4 mph /  3.9 km/h 4.6 mph /  7.4 km/h 77 % 0.00 in /  0 mm
07:28 69.6 °F /  20.9 °C 62.1 °F /  16.7 °C 30.02 in /  1016.5 hPa NE 4.9 mph /  7.9 km/h 10.4 mph /  16.7 km/h 77 % 0.00 in /  0 mm
07:34 69.7 °F /  20.9 °C 62.2 °F /  16.8 °C 30.02 in /  1016.5 hPa NE 2.0 mph /  3.2 km/h 3.5 mph /  5.6 km/h 77 % 0.00 in /  0 mm
07:39 69.8 °F /  21 °C 62.3 °F /  16.8 °C 30.02 in /  1016.5 hPa NE 1.2 mph /  1.9 km/h 3.5 mph /  5.6 km/h 77 % 0.00 in /  0 mm
07:44 69.8 °F /  21 °C 62.6 °F /  17 °C 30.03 in /  1016.8 hPa NE 0.9 mph /  1.4 km/h 2.3 mph /  3.7 km/h 78 % 0.00 in /  0 mm
07:49 69.8 °F /  21 °C 63.0 °F /  17.2 °C 30.03 in /  1016.8 hPa North 1.0 mph /  1.6 km/h 5.8 mph /  9.3 km/h 79 % 0.00 in /  0 mm
07:54 69.9 °F /  21.1 °C 63.4 °F /  17.4 °C 30.02 in /  1016.5 hPa ENE 1.2 mph /  1.9 km/h 5.0 mph /  8 km/h 80 % 0.00 in /  0 mm
07:59 70.1 °F /  21.2 °C 63.6 °F /  17.6 °C 30.03 in /  1016.8 hPa East 1.3 mph /  2.1 km/h 3.5 mph /  5.6 km/h 80 % 0.00 in /  0 mm
08:04 70.2 °F /  21.2 °C 63.4 °F /  17.4 °C 30.03 in /  1016.8 hPa NE 1.6 mph /  2.6 km/h 4.0 mph /  6.4 km/h 79 % 0.00 in /  0 mm
08:09 70.3 °F /  21.3 °C 63.1 °F /  17.3 °C 30.03 in /  1016.8 hPa NE 2.3 mph /  3.7 km/h 5.8 mph /  9.3 km/h 78 % 0.00 in /  0 mm
08:14 70.3 °F /  21.3 °C 63.5 °F /  17.5 °C 30.02 in /  1016.5 hPa ENE 3.2 mph /  5.1 km/h 6.9 mph /  11.1 km/h 79 % 0.00 in /  0 mm
08:19 70.4 °F /  21.3 °C 63.9 °F /  17.7 °C 30.03 in /  1016.8 hPa NE 1.9 mph /  3.1 km/h 4.6 mph /  7.4 km/h 80 % 0.00 in /  0 mm
08:24 70.5 °F /  21.4 °C 64.0 °F /  17.8 °C 30.02 in /  1016.5 hPa ENE 2.5 mph /  4 km/h 3.5 mph /  5.6 km/h 80 % 0.00 in /  0 mm
08:29 70.6 °F /  21.4 °C 64.1 °F /  17.8 °C 30.03 in /  1016.8 hPa ENE 0.7 mph /  1.1 km/h 2.3 mph /  3.7 km/h 80 % 0.00 in /  0 mm
08:34 70.7 °F /  21.5 °C 63.9 °F /  17.7 °C 30.02 in /  1016.5 hPa ENE 0.7 mph /  1.1 km/h 2.0 mph /  3.2 km/h 79 % 0.00 in /  0 mm
08:39 70.8 °F /  21.6 °C 64.0 °F /  17.8 °C 30.02 in /  1016.5 hPa ENE 0.9 mph /  1.4 km/h 2.3 mph /  3.7 km/h 79 % 0.00 in /  0 mm
08:44 71.0 °F /  21.7 °C 64.2 °F /  17.9 °C 30.02 in /  1016.5 hPa NE 1.4 mph /  2.3 km/h 2.3 mph /  3.7 km/h 79 % 0.00 in /  0 mm
08:49 71.1 °F /  21.7 °C 64.6 °F /  18.1 °C 30.02 in /  1016.5 hPa Calm   2.3 mph /  3.7 km/h 80 % 0.00 in /  0 mm
08:54 71.3 °F /  21.8 °C 64.8 °F /  18.2 °C 30.02 in /  1016.5 hPa ENE 0.8 mph /  1.3 km/h 2.3 mph /  3.7 km/h 80 % 0.00 in /  0 mm
08:59 71.5 °F /  21.9 °C 64.3 °F /  17.9 °C 30.02 in /  1016.5 hPa ENE 1.6 mph /  2.6 km/h 3.5 mph /  5.6 km/h 78 % 0.00 in /  0 mm
09:04 71.7 °F /  22.1 °C 64.5 °F /  18.1 °C 30.02 in /  1016.5 hPa East 0.6 mph /  1 km/h 3.5 mph /  5.6 km/h 78 % 0.00 in /  0 mm
09:05 71.7 °F /  22.1 °C 64.5 °F /  18.1 °C 30.02 in /  1016.5 hPa NE 0.7 mph /  1.1 km/h 2.0 mph /  3.2 km/h 78 % 0.00 in /  0 mm
09:10 71.9 °F /  22.2 °C 65.0 °F /  18.3 °C 30.02 in /  1016.5 hPa NE 0.4 mph /  0.6 km/h 1.2 mph /  1.9 km/h 79 % 0.00 in /  0 mm
09:15 72.2 °F /  22.3 °C 64.6 °F /  18.1 °C 30.02 in /  1016.5 hPa NE 2.6 mph /  4.2 km/h 3.5 mph /  5.6 km/h 77 % 0.00 in /  0 mm
09:20 72.4 °F /  22.4 °C 64.8 °F /  18.2 °C 30.02 in /  1016.5 hPa NE 2.6 mph /  4.2 km/h 5.0 mph /  8 km/h 77 % 0.00 in /  0 mm
09:25 72.5 °F /  22.5 °C 64.9 °F /  18.3 °C 30.02 in /  1016.5 hPa NE 0.8 mph /  1.3 km/h 2.3 mph /  3.7 km/h 77 % 0.00 in /  0 mm
09:30 72.6 °F /  22.6 °C 64.2 °F /  17.9 °C 30.02 in /  1016.5 hPa NE 2.2 mph /  3.5 km/h 5.8 mph /  9.3 km/h 75 % 0.00 in /  0 mm
09:35 72.6 °F /  22.6 °C 63.8 °F /  17.7 °C 30.02 in /  1016.5 hPa NE 2.4 mph /  3.9 km/h 3.5 mph /  5.6 km/h 74 % 0.00 in /  0 mm
09:40 72.8 °F /  22.7 °C 63.6 °F /  17.6 °C 30.02 in /  1016.5 hPa ENE 1.3 mph /  2.1 km/h 3.5 mph /  5.6 km/h 73 % 0.00 in /  0 mm
09:45 73.0 °F /  22.8 °C 64.2 °F /  17.9 °C 30.02 in /  1016.5 hPa NE 0.5 mph /  0.8 km/h 1.2 mph /  1.9 km/h 74 % 0.00 in /  0 mm
09:50 73.3 °F /  22.9 °C 64.1 °F /  17.8 °C 30.02 in /  1016.5 hPa NE 2.0 mph /  3.2 km/h 3.5 mph /  5.6 km/h 73 % 0.00 in /  0 mm
09:55 73.9 °F /  23.3 °C 65.1 °F /  18.4 °C 30.03 in /  1016.8 hPa NE 2.2 mph /  3.5 km/h 5.0 mph /  8 km/h 74 % 0.00 in /  0 mm
10:00 74.2 °F /  23.4 °C 65.0 °F /  18.3 °C 30.02 in /  1016.5 hPa NE 2.7 mph /  4.3 km/h 5.0 mph /  8 km/h 73 % 0.00 in /  0 mm
10:05 74.5 °F /  23.6 °C 65.3 °F /  18.5 °C 30.02 in /  1016.5 hPa NE 1.3 mph /  2.1 km/h 3.5 mph /  5.6 km/h 73 % 0.00 in /  0 mm
10:10 75.0 °F /  23.9 °C 65.4 °F /  18.6 °C 30.02 in /  1016.5 hPa ENE 2.2 mph /  3.5 km/h 3.5 mph /  5.6 km/h 72 % 0.00 in /  0 mm
10:15 75.4 °F /  24.1 °C 64.9 °F /  18.3 °C 30.02 in /  1016.5 hPa ENE 2.7 mph /  4.3 km/h 5.0 mph /  8 km/h 70 % 0.00 in /  0 mm
10:20 75.8 °F /  24.3 °C 64.9 °F /  18.3 °C 30.02 in /  1016.5 hPa NE 2.3 mph /  3.7 km/h 5.0 mph /  8 km/h 69 % 0.00 in /  0 mm
10:25 76.1 °F /  24.5 °C 64.3 °F /  17.9 °C 30.02 in /  1016.5 hPa ENE 2.3 mph /  3.7 km/h 3.5 mph /  5.6 km/h 67 % 0.00 in /  0 mm
10:29 76.3 °F /  24.6 °C 65.0 °F /  18.3 °C 30.02 in /  1016.5 hPa NE 2.2 mph /  3.5 km/h 6.0 mph /  9.7 km/h 68 % 0.00 in /  0 mm
10:34 77.0 °F /  25 °C 64.8 °F /  18.2 °C 30.02 in /  1016.5 hPa East 2.1 mph /  3.4 km/h 5.0 mph /  8 km/h 66 % 0.00 in /  0 mm
10:39 77.5 °F /  25.3 °C 64.4 °F /  18 °C 30.01 in /  1016.1 hPa ENE 2.9 mph /  4.7 km/h 6.9 mph /  11.1 km/h 64 % 0.00 in /  0 mm
10:44 77.8 °F /  25.4 °C 63.3 °F /  17.4 °C 30.01 in /  1016.1 hPa NE 2.9 mph /  4.7 km/h 4.6 mph /  7.4 km/h 61 % 0.00 in /  0 mm
10:49 78.0 °F /  25.6 °C 63.5 °F /  17.5 °C 30.01 in /  1016.1 hPa ENE 2.2 mph /  3.5 km/h 4.6 mph /  7.4 km/h 61 % 0.00 in /  0 mm
10:54 78.5 °F /  25.8 °C 63.5 °F /  17.5 °C 30.01 in /  1016.1 hPa ENE 0.8 mph /  1.3 km/h 2.3 mph /  3.7 km/h 60 % 0.00 in /  0 mm
10:59 79.3 °F /  26.3 °C 64.7 °F /  18.2 °C 30.01 in /  1016.1 hPa NE 1.0 mph /  1.6 km/h 2.3 mph /  3.7 km/h 61 % 0.00 in /  0 mm
11:04 79.8 °F /  26.6 °C 62.7 °F /  17.1 °C 30.01 in /  1016.1 hPa NE 2.5 mph /  4 km/h 4.6 mph /  7.4 km/h 56 % 0.00 in /  0 mm
11:09 80.0 °F /  26.7 °C 62.9 °F /  17.2 °C 30.01 in /  1016.1 hPa ENE 0.7 mph /  1.1 km/h 4.0 mph /  6.4 km/h 56 % 0.00 in /  0 mm
11:14 80.2 °F /  26.8 °C 63.1 °F /  17.3 °C 30.01 in /  1016.1 hPa ENE 3.1 mph /  5 km/h 4.6 mph /  7.4 km/h 56 % 0.00 in /  0 mm
11:19 80.4 °F /  26.9 °C 62.2 °F /  16.8 °C 30.02 in /  1016.5 hPa NE 2.7 mph /  4.3 km/h 4.6 mph /  7.4 km/h 54 % 0.00 in /  0 mm
11:24 80.4 °F /  26.9 °C 62.8 °F /  17.1 °C 30.01 in /  1016.1 hPa ENE 0.9 mph /  1.4 km/h 3.5 mph /  5.6 km/h 55 % 0.00 in /  0 mm
11:29 80.8 °F /  27.1 °C 64.1 °F /  17.8 °C 30.01 in /  1016.1 hPa NE 1.6 mph /  2.6 km/h 3.5 mph /  5.6 km/h 57 % 0.00 in /  0 mm
11:34 81.2 °F /  27.3 °C 62.4 °F /  16.9 °C 30.01 in /  1016.1 hPa ENE 2.3 mph /  3.7 km/h 4.6 mph /  7.4 km/h 53 % 0.00 in /  0 mm
11:39 81.3 °F /  27.4 °C 63.6 °F /  17.6 °C 30.01 in /  1016.1 hPa ENE 0.8 mph /  1.3 km/h 2.3 mph /  3.7 km/h 55 % 0.00 in /  0 mm
11:44 81.6 °F /  27.6 °C 64.4 °F /  18 °C 30.01 in /  1016.1 hPa NE 1.4 mph /  2.3 km/h 3.0 mph /  4.8 km/h 56 % 0.00 in /  0 mm
11:49 81.9 °F /  27.7 °C 63.1 °F /  17.3 °C 30.01 in /  1016.1 hPa ENE 0.7 mph /  1.1 km/h 5.8 mph /  9.3 km/h 53 % 0.00 in /  0 mm
11:54 81.9 °F /  27.7 °C 63.1 °F /  17.3 °C 30.01 in /  1016.1 hPa NE 2.0 mph /  3.2 km/h 3.5 mph /  5.6 km/h 53 % 0.00 in /  0 mm
11:59 82.1 °F /  27.8 °C 64.3 °F /  17.9 °C 30.01 in /  1016.1 hPa NE 2.2 mph /  3.5 km/h 4.6 mph /  7.4 km/h 55 % 0.00 in /  0 mm
12:04 81.9 °F /  27.7 °C 62.5 °F /  16.9 °C 30.01 in /  1016.1 hPa ENE 4.2 mph /  6.8 km/h 7.0 mph /  11.3 km/h 52 % 0.00 in /  0 mm
12:09 81.7 °F /  27.6 °C 63.4 °F /  17.4 °C 30.01 in /  1016.1 hPa East 3.6 mph /  5.8 km/h 7.0 mph /  11.3 km/h 54 % 0.00 in /  0 mm
12:14 81.4 °F /  27.4 °C 64.2 °F /  17.9 °C 30.01 in /  1016.1 hPa ENE 2.8 mph /  4.5 km/h 7.0 mph /  11.3 km/h 56 % 0.00 in /  0 mm
12:19 81.6 °F /  27.6 °C 62.3 °F /  16.8 °C 30.01 in /  1016.1 hPa East 5.0 mph /  8 km/h 8.1 mph /  13 km/h 52 % 0.00 in /  0 mm
12:24 80.9 °F /  27.2 °C 60.5 °F /  15.8 °C 30.01 in /  1016.1 hPa ENE 3.2 mph /  5.1 km/h 5.8 mph /  9.3 km/h 50 % 0.00 in /  0 mm
12:29 81.2 °F /  27.3 °C 64.0 °F /  17.8 °C 30.00 in /  1015.8 hPa NE 0.5 mph /  0.8 km/h 2.3 mph /  3.7 km/h 56 % 0.00 in /  0 mm
12:34 81.7 °F /  27.6 °C 62.9 °F /  17.2 °C 30.01 in /  1016.1 hPa NE 1.3 mph /  2.1 km/h 5.8 mph /  9.3 km/h 53 % 0.00 in /  0 mm
12:39 81.8 °F /  27.7 °C 60.2 °F /  15.7 °C 30.00 in /  1015.8 hPa ENE 2.4 mph /  3.9 km/h 8.1 mph /  13 km/h 48 % 0.00 in /  0 mm
12:44 81.7 °F /  27.6 °C 61.8 °F /  16.6 °C 30.00 in /  1015.8 hPa ENE 3.2 mph /  5.1 km/h 6.0 mph /  9.7 km/h 51 % 0.00 in /  0 mm
12:49 81.9 °F /  27.7 °C 63.6 °F /  17.6 °C 30.00 in /  1015.8 hPa ENE 1.0 mph /  1.6 km/h 2.3 mph /  3.7 km/h 54 % 0.00 in /  0 mm
12:55 81.9 °F /  27.7 °C 62.5 °F /  16.9 °C 30.00 in /  1015.8 hPa NE 1.4 mph /  2.3 km/h 8.0 mph /  12.9 km/h 52 % 0.00 in /  0 mm
13:00 81.5 °F /  27.5 °C 62.2 °F /  16.8 °C 30.00 in /  1015.8 hPa ENE 3.1 mph /  5 km/h 3.5 mph /  5.6 km/h 52 % 0.00 in /  0 mm
13:05 81.0 °F /  27.2 °C 62.3 °F /  16.8 °C 30.00 in /  1015.8 hPa NE 1.9 mph /  3.1 km/h 9.2 mph /  14.8 km/h 53 % 0.00 in /  0 mm
13:10 81.0 °F /  27.2 °C 63.3 °F /  17.4 °C 30.00 in /  1015.8 hPa East 1.8 mph /  2.9 km/h 6.0 mph /  9.7 km/h 55 % 0.00 in /  0 mm
13:15 80.9 °F /  27.2 °C 62.7 °F /  17.1 °C 30.00 in /  1015.8 hPa NE 1.8 mph /  2.9 km/h 6.9 mph /  11.1 km/h 54 % 0.00 in /  0 mm
13:20 80.7 °F /  27.1 °C 63.0 °F /  17.2 °C 30.00 in /  1015.8 hPa NE 1.2 mph /  1.9 km/h 4.6 mph /  7.4 km/h 55 % 0.00 in /  0 mm
13:25 80.4 °F /  26.9 °C 62.8 °F /  17.1 °C 30.00 in /  1015.8 hPa NE 1.4 mph /  2.3 km/h 6.9 mph /  11.1 km/h 55 % 0.00 in /  0 mm
13:30 80.1 °F /  26.7 °C 62.5 °F /  16.9 °C 30.00 in /  1015.8 hPa NE 0.8 mph /  1.3 km/h 3.5 mph /  5.6 km/h 55 % 0.00 in /  0 mm
13:35 80.1 °F /  26.7 °C 63.5 °F /  17.5 °C 29.99 in /  1015.5 hPa NE 2.4 mph /  3.9 km/h 5.0 mph /  8 km/h 57 % 0.00 in /  0 mm
13:40 80.4 °F /  26.9 °C 64.3 °F /  17.9 °C 29.99 in /  1015.5 hPa ENE 2.9 mph /  4.7 km/h 6.9 mph /  11.1 km/h 58 % 0.00 in /  0 mm
13:45 80.5 °F /  26.9 °C 64.4 °F /  18 °C 29.99 in /  1015.5 hPa NE 1.0 mph /  1.6 km/h 2.3 mph /  3.7 km/h 58 % 0.00 in /  0 mm
13:50 80.9 °F /  27.2 °C 64.2 °F /  17.9 °C 29.98 in /  1015.1 hPa NE 1.9 mph /  3.1 km/h 3.5 mph /  5.6 km/h 57 % 0.00 in /  0 mm
13:55 81.2 °F /  27.3 °C 64.5 °F /  18.1 °C 29.99 in /  1015.5 hPa NE 3.1 mph /  5 km/h 6.9 mph /  11.1 km/h 57 % 0.00 in /  0 mm
14:00 81.2 °F /  27.3 °C 64.0 °F /  17.8 °C 29.98 in /  1015.1 hPa ENE 0.7 mph /  1.1 km/h 3.5 mph /  5.6 km/h 56 % 0.00 in /  0 mm
14:05 81.5 °F /  27.5 °C 63.3 °F /  17.4 °C 29.98 in /  1015.1 hPa ENE 1.6 mph /  2.6 km/h 4.6 mph /  7.4 km/h 54 % 0.00 in /  0 mm
14:10 81.5 °F /  27.5 °C 64.3 °F /  17.9 °C 29.98 in /  1015.1 hPa ENE 0.5 mph /  0.8 km/h 2.3 mph /  3.7 km/h 56 % 0.00 in /  0 mm
14:15 81.6 °F /  27.6 °C 63.9 °F /  17.7 °C 29.97 in /  1014.8 hPa NNE 2.5 mph /  4 km/h 4.6 mph /  7.4 km/h 55 % 0.00 in /  0 mm
14:20 81.4 °F /  27.4 °C 62.6 °F /  17 °C 29.98 in /  1015.1 hPa ENE 0.7 mph /  1.1 km/h 3.5 mph /  5.6 km/h 53 % 0.00 in /  0 mm
14:25 81.1 °F /  27.3 °C 62.9 °F /  17.2 °C 29.98 in /  1015.1 hPa ENE 2.6 mph /  4.2 km/h 4.6 mph /  7.4 km/h 54 % 0.00 in /  0 mm
14:30 80.9 °F /  27.2 °C 63.7 °F /  17.6 °C 29.97 in /  1014.8 hPa ENE 0.5 mph /  0.8 km/h 3.5 mph /  5.6 km/h 56 % 0.00 in /  0 mm
14:35 81.1 °F /  27.3 °C 64.4 °F /  18 °C 29.97 in /  1014.8 hPa NE 1.0 mph /  1.6 km/h 2.3 mph /  3.7 km/h 57 % 0.00 in /  0 mm
14:40 81.2 °F /  27.3 °C 63.5 °F /  17.5 °C 29.97 in /  1014.8 hPa NE 1.8 mph /  2.9 km/h 5.8 mph /  9.3 km/h 55 % 0.00 in /  0 mm
14:45 81.2 °F /  27.3 °C 62.4 °F /  16.9 °C 29.96 in /  1014.4 hPa ENE 4.6 mph /  7.4 km/h 8.1 mph /  13 km/h 53 % 0.00 in /  0 mm
14:50 81.3 °F /  27.4 °C 64.1 °F /  17.8 °C 29.97 in /  1014.8 hPa East 1.8 mph /  2.9 km/h 5.0 mph /  8 km/h 56 % 0.00 in /  0 mm
14:55 81.4 °F /  27.4 °C 63.7 °F /  17.6 °C 29.96 in /  1014.4 hPa NNE 2.0 mph /  3.2 km/h 4.6 mph /  7.4 km/h 55 % 0.00 in /  0 mm
15:00 81.5 °F /  27.5 °C 64.3 °F /  17.9 °C 29.96 in /  1014.4 hPa ENE 0.7 mph /  1.1 km/h 3.0 mph /  4.8 km/h 56 % 0.00 in /  0 mm
15:06 81.6 °F /  27.6 °C 63.3 °F /  17.4 °C 29.96 in /  1014.4 hPa ENE 1.0 mph /  1.6 km/h 6.0 mph /  9.7 km/h 54 % 0.00 in /  0 mm
15:11 81.5 °F /  27.5 °C 63.2 °F /  17.3 °C 29.95 in /  1014.1 hPa ENE 1.0 mph /  1.6 km/h 6.0 mph /  9.7 km/h 54 % 0.00 in /  0 mm
15:16 81.5 °F /  27.5 °C 64.3 °F /  17.9 °C 29.95 in /  1014.1 hPa ENE 1.0 mph /  1.6 km/h 3.0 mph /  4.8 km/h 56 % 0.00 in /  0 mm
15:21 81.4 °F /  27.4 °C 62.6 °F /  17 °C 29.95 in /  1014.1 hPa ENE 1.0 mph /  1.6 km/h 6.0 mph /  9.7 km/h 53 % 0.00 in /  0 mm
15:26 81.1 °F /  27.3 °C 63.4 °F /  17.4 °C 29.95 in /  1014.1 hPa ENE 3.0 mph /  4.8 km/h 8.0 mph /  12.9 km/h 55 % 0.00 in /  0 mm
15:31 81.2 °F /  27.3 °C 64.5 °F /  18.1 °C 29.95 in /  1014.1 hPa NE 1.0 mph /  1.6 km/h 3.0 mph /  4.8 km/h 57 % 0.00 in /  0 mm
15:36 81.2 °F /  27.3 °C 64.5 °F /  18.1 °C 29.95 in /  1014.1 hPa NE 2.0 mph /  3.2 km/h 3.0 mph /  4.8 km/h 57 % 0.00 in /  0 mm
15:41 81.2 °F /  27.3 °C 64.0 °F /  17.8 °C 29.95 in /  1014.1 hPa NE 3.0 mph /  4.8 km/h 7.0 mph /  11.3 km/h 56 % 0.00 in /  0 mm
15:46 81.1 °F /  27.3 °C 63.9 °F /  17.7 °C 29.95 in /  1014.1 hPa NE 1.0 mph /  1.6 km/h 6.0 mph /  9.7 km/h 56 % 0.00 in /  0 mm
15:51 81.1 °F /  27.3 °C 63.9 °F /  17.7 °C 29.95 in /  1014.1 hPa ENE 2.0 mph /  3.2 km/h 5.0 mph /  8 km/h 56 % 0.00 in /  0 mm
15:56 81.1 °F /  27.3 °C 65.4 °F /  18.6 °C 29.95 in /  1014.1 hPa Calm   5.0 mph /  8 km/h 59 % 0.00 in /  0 mm
16:01 81.3 °F /  27.4 °C 65.1 °F /  18.4 °C 29.94 in /  1013.8 hPa SSE 1.0 mph /  1.6 km/h 3.5 mph /  5.6 km/h 58 % 0.00 in /  0 mm
16:06 81.5 °F /  27.5 °C 60.5 °F /  15.8 °C 29.94 in /  1013.8 hPa SE 5.0 mph /  8 km/h 9.2 mph /  14.8 km/h 49 % 0.00 in /  0 mm
16:11 81.5 °F /  27.5 °C 61.6 °F /  16.4 °C 29.94 in /  1013.8 hPa South 0.4 mph /  0.6 km/h 3.5 mph /  5.6 km/h 51 % 0.00 in /  0 mm
16:16 81.7 °F /  27.6 °C 61.2 °F /  16.2 °C 29.94 in /  1013.8 hPa SE 1.3 mph /  2.1 km/h 6.9 mph /  11.1 km/h 50 % 0.00 in /  0 mm
16:21 81.7 °F /  27.6 °C 61.2 °F /  16.2 °C 29.94 in /  1013.8 hPa SSE 3.4 mph /  5.5 km/h 6.9 mph /  11.1 km/h 50 % 0.00 in /  0 mm
16:26 81.7 °F /  27.6 °C 62.4 °F /  16.9 °C 29.94 in /  1013.8 hPa SSE 1.0 mph /  1.6 km/h 3.5 mph /  5.6 km/h 52 % 0.00 in /  0 mm
16:31 81.9 °F /  27.7 °C 62.5 °F /  16.9 °C 29.94 in /  1013.8 hPa SE 0.5 mph /  0.8 km/h 2.3 mph /  3.7 km/h 52 % 0.00 in /  0 mm
16:36 82.0 °F /  27.8 °C 63.2 °F /  17.3 °C 29.94 in /  1013.8 hPa SE 1.7 mph /  2.7 km/h 3.5 mph /  5.6 km/h 53 % 0.00 in /  0 mm
16:41 82.1 °F /  27.8 °C 63.3 °F /  17.4 °C 29.94 in /  1013.8 hPa SE 0.4 mph /  0.6 km/h 2.3 mph /  3.7 km/h 53 % 0.00 in /  0 mm
16:46 82.1 °F /  27.8 °C 62.7 °F /  17.1 °C 29.94 in /  1013.8 hPa SSW 1.2 mph /  1.9 km/h 2.3 mph /  3.7 km/h 52 % 0.00 in /  0 mm
16:51 81.9 °F /  27.7 °C 62.5 °F /  16.9 °C 29.94 in /  1013.8 hPa SE 4.2 mph /  6.8 km/h 8.1 mph /  13 km/h 52 % 0.00 in /  0 mm
16:56 81.7 °F /  27.6 °C 63.4 °F /  17.4 °C 29.94 in /  1013.8 hPa Calm   3.5 mph /  5.6 km/h 54 % 0.00 in /  0 mm
17:01 81.4 °F /  27.4 °C 62.6 °F /  17 °C 29.93 in /  1013.4 hPa SE 3.4 mph /  5.5 km/h 4.0 mph /  6.4 km/h 53 % 0.00 in /  0 mm
17:06 81.1 °F /  27.3 °C 62.9 °F /  17.2 °C 29.94 in /  1013.8 hPa SW 0.8 mph /  1.3 km/h 2.3 mph /  3.7 km/h 54 % 0.00 in /  0 mm
17:11 81.0 °F /  27.2 °C 62.8 °F /  17.1 °C 29.93 in /  1013.4 hPa SE 1.7 mph /  2.7 km/h 3.5 mph /  5.6 km/h 54 % 0.00 in /  0 mm
17:17 80.8 °F /  27.1 °C 62.6 °F /  17 °C 29.94 in /  1013.8 hPa SE 1.1 mph /  1.8 km/h 5.8 mph /  9.3 km/h 54 % 0.00 in /  0 mm
17:21 80.5 °F /  26.9 °C 62.3 °F /  16.8 °C 29.94 in /  1013.8 hPa Calm   1.2 mph /  1.9 km/h 54 % 0.00 in /  0 mm
17:27 80.2 °F /  26.8 °C 63.1 °F /  17.3 °C 29.94 in /  1013.8 hPa Calm   1.2 mph /  1.9 km/h 56 % 0.00 in /  0 mm
17:32 80.1 °F /  26.7 °C 62.5 °F /  16.9 °C 29.94 in /  1013.8 hPa SE 1.1 mph /  1.8 km/h 5.8 mph /  9.3 km/h 55 % 0.00 in /  0 mm
17:37 79.9 °F /  26.6 °C 62.8 °F /  17.1 °C 29.93 in /  1013.4 hPa SE 0.5 mph /  0.8 km/h 2.3 mph /  3.7 km/h 56 % 0.00 in /  0 mm
17:42 79.7 °F /  26.5 °C 62.6 °F /  17 °C 29.93 in /  1013.4 hPa SE 4.1 mph /  6.6 km/h 9.2 mph /  14.8 km/h 56 % 0.00 in /  0 mm
17:47 79.5 °F /  26.4 °C 63.4 °F /  17.4 °C 29.93 in /  1013.4 hPa SE 0.5 mph /  0.8 km/h 2.3 mph /  3.7 km/h 58 % 0.00 in /  0 mm
17:52 79.3 °F /  26.3 °C 62.7 °F /  17.1 °C 29.93 in /  1013.4 hPa ESE 0.8 mph /  1.3 km/h 2.3 mph /  3.7 km/h 57 % 0.00 in /  0 mm
17:57 79.1 °F /  26.2 °C 62.6 °F /  17 °C 29.93 in /  1013.4 hPa WSW 0.6 mph /  1 km/h 3.0 mph /  4.8 km/h 57 % 0.00 in /  0 mm
18:02 78.9 °F /  26.1 °C 62.9 °F /  17.2 °C 29.92 in /  1013.1 hPa SE 0.2 mph /  0.3 km/h 1.2 mph /  1.9 km/h 58 % 0.00 in /  0 mm
18:07 78.7 °F /  25.9 °C 62.7 °F /  17.1 °C 29.93 in /  1013.4 hPa SE 0.8 mph /  1.3 km/h 3.5 mph /  5.6 km/h 58 % 0.00 in /  0 mm
18:12 78.5 °F /  25.8 °C 63.0 °F /  17.2 °C 29.93 in /  1013.4 hPa South 2.4 mph /  3.9 km/h 5.8 mph /  9.3 km/h 59 % 0.00 in /  0 mm
18:17 78.2 °F /  25.7 °C 62.7 °F /  17.1 °C 29.93 in /  1013.4 hPa SSE 1.3 mph /  2.1 km/h 3.5 mph /  5.6 km/h 59 % 0.00 in /  0 mm
18:22 77.9 °F /  25.5 °C 62.4 °F /  16.9 °C 29.93 in /  1013.4 hPa SE 3.1 mph /  5 km/h 4.6 mph /  7.4 km/h 59 % 0.00 in /  0 mm
18:27 77.7 °F /  25.4 °C 62.7 °F /  17.1 °C 29.93 in /  1013.4 hPa SE 1.0 mph /  1.6 km/h 2.3 mph /  3.7 km/h 60 % 0.00 in /  0 mm
18:32 77.6 °F /  25.3 °C 63.1 °F /  17.3 °C 29.94 in /  1013.8 hPa SE 3.5 mph /  5.6 km/h 6.0 mph /  9.7 km/h 61 % 0.00 in /  0 mm
18:37 77.3 °F /  25.2 °C 62.8 °F /  17.1 °C 29.94 in /  1013.8 hPa SE 1.7 mph /  2.7 km/h 3.5 mph /  5.6 km/h 61 % 0.00 in /  0 mm
18:42 77.1 °F /  25.1 °C 63.1 °F /  17.3 °C 29.93 in /  1013.4 hPa ESE 2.8 mph /  4.5 km/h 5.0 mph /  8 km/h 62 % 0.00 in /  0 mm
18:47 76.9 °F /  24.9 °C 62.9 °F /  17.2 °C 29.93 in /  1013.4 hPa SE 2.9 mph /  4.7 km/h 5.0 mph /  8 km/h 62 % 0.00 in /  0 mm
18:52 76.7 °F /  24.8 °C 63.2 °F /  17.3 °C 29.94 in /  1013.8 hPa SE 1.3 mph /  2.1 km/h 4.0 mph /  6.4 km/h 63 % 0.00 in /  0 mm
18:57 76.6 °F /  24.8 °C 63.5 °F /  17.5 °C 29.93 in /  1013.4 hPa SE 1.4 mph /  2.3 km/h 4.0 mph /  6.4 km/h 64 % 0.00 in /  0 mm
19:02 76.4 °F /  24.7 °C 63.8 °F /  17.7 °C 29.93 in /  1013.4 hPa SE 0.1 mph /  0.2 km/h   65 % 0.00 in /  0 mm
19:07 76.4 °F /  24.7 °C 64.2 °F /  17.9 °C 29.93 in /  1013.4 hPa Calm     66 % 0.00 in /  0 mm
19:12 76.2 °F /  24.6 °C 64.4 °F /  18 °C 29.92 in /  1013.1 hPa SE 0.1 mph /  0.2 km/h 3.5 mph /  5.6 km/h 67 % 0.00 in /  0 mm
19:17 76.1 °F /  24.5 °C 64.3 °F /  17.9 °C 29.93 in /  1013.4 hPa SE 0.9 mph /  1.4 km/h 2.3 mph /  3.7 km/h 67 % 0.00 in /  0 mm
19:22 75.9 °F /  24.4 °C 64.2 °F /  17.9 °C 29.93 in /  1013.4 hPa SE 2.0 mph /  3.2 km/h 2.3 mph /  3.7 km/h 67 % 0.00 in /  0 mm
19:27 75.7 °F /  24.3 °C 64.0 °F /  17.8 °C 29.93 in /  1013.4 hPa Calm     67 % 0.00 in /  0 mm
19:32 75.5 °F /  24.2 °C 64.2 °F /  17.9 °C 29.93 in /  1013.4 hPa Calm   1.2 mph /  1.9 km/h 68 % 0.00 in /  0 mm
19:37 75.2 °F /  24 °C 64.3 °F /  17.9 °C 29.94 in /  1013.8 hPa Calm     69 % 0.00 in /  0 mm
19:43 74.9 °F /  23.8 °C 64.5 °F /  18.1 °C 29.94 in /  1013.8 hPa Calm     70 % 0.00 in /  0 mm
19:48 74.6 °F /  23.7 °C 64.2 °F /  17.9 °C 29.94 in /  1013.8 hPa Calm     70 % 0.00 in /  0 mm
19:53 74.4 °F /  23.6 °C 64.0 °F /  17.8 °C 29.93 in /  1013.4 hPa Calm     70 % 0.00 in /  0 mm
19:58 74.3 °F /  23.5 °C 64.3 °F /  17.9 °C 29.93 in /  1013.4 hPa Calm     71 % 0.00 in /  0 mm
20:03 74.1 °F /  23.4 °C 64.1 °F /  17.8 °C 29.93 in /  1013.4 hPa Calm     71 % 0.00 in /  0 mm
20:08 73.9 °F /  23.3 °C 64.3 °F /  17.9 °C 29.93 in /  1013.4 hPa Calm     72 % 0.00 in /  0 mm
20:13 73.7 °F /  23.2 °C 64.1 °F /  17.8 °C 29.93 in /  1013.4 hPa Calm     72 % 0.00 in /  0 mm
20:18 73.5 °F /  23.1 °C 64.3 °F /  17.9 °C 29.93 in /  1013.4 hPa Calm     73 % 0.00 in /  0 mm
20:23 73.3 °F /  22.9 °C 64.9 °F /  18.3 °C 29.93 in /  1013.4 hPa Calm   1.2 mph /  1.9 km/h 75 % 0.00 in /  0 mm
20:28 73.1 °F /  22.8 °C 64.7 °F /  18.2 °C 29.93 in /  1013.4 hPa Calm     75 % 0.00 in /  0 mm
20:33 72.9 °F /  22.7 °C 65.3 °F /  18.5 °C 29.94 in /  1013.8 hPa Calm     77 % 0.00 in /  0 mm
20:38 72.8 °F /  22.7 °C 65.2 °F /  18.4 °C 29.94 in /  1013.8 hPa Calm     77 % 0.00 in /  0 mm
20:43 72.6 °F /  22.6 °C 65.3 °F /  18.5 °C 29.93 in /  1013.4 hPa SE 0.1 mph /  0.2 km/h 2.3 mph /  3.7 km/h 78 % 0.00 in /  0 mm
20:48 72.5 °F /  22.5 °C 66.0 °F /  18.9 °C 29.94 in /  1013.8 hPa SE 1.4 mph /  2.3 km/h 2.3 mph /  3.7 km/h 80 % 0.00 in /  0 mm
20:53 72.3 °F /  22.4 °C 66.1 °F /  18.9 °C 29.94 in /  1013.8 hPa Calm   3.5 mph /  5.6 km/h 81 % 0.00 in /  0 mm
20:58 72.2 °F /  22.3 °C 66.4 °F /  19.1 °C 29.94 in /  1013.8 hPa SE 0.5 mph /  0.8 km/h 3.5 mph /  5.6 km/h 82 % 0.00 in /  0 mm
21:03 72.1 °F /  22.3 °C 66.3 °F /  19.1 °C 29.93 in /  1013.4 hPa SSE 0.8 mph /  1.3 km/h 3.0 mph /  4.8 km/h 82 % 0.00 in /  0 mm
21:08 72.1 °F /  22.3 °C 66.6 °F /  19.2 °C 29.93 in /  1013.4 hPa SE 0.6 mph /  1 km/h 3.5 mph /  5.6 km/h 83 % 0.00 in /  0 mm
21:13 72.0 °F /  22.2 °C 66.6 °F /  19.2 °C 29.93 in /  1013.4 hPa SE 0.2 mph /  0.3 km/h   83 % 0.00 in /  0 mm
21:18 72.0 °F /  22.2 °C 66.6 °F /  19.2 °C 29.93 in /  1013.4 hPa SE 1.4 mph /  2.3 km/h 3.5 mph /  5.6 km/h 83 % 0.00 in /  0 mm
21:23 71.9 °F /  22.2 °C 66.8 °F /  19.3 °C 29.93 in /  1013.4 hPa SE 0.5 mph /  0.8 km/h 1.0 mph /  1.6 km/h 84 % 0.00 in /  0 mm
21:28 71.9 °F /  22.2 °C 66.8 °F /  19.3 °C 29.94 in /  1013.8 hPa Calm   2.3 mph /  3.7 km/h 84 % 0.00 in /  0 mm
21:33 71.8 °F /  22.1 °C 66.7 °F /  19.3 °C 29.94 in /  1013.8 hPa Calm     84 % 0.00 in /  0 mm
21:38 71.7 °F /  22.1 °C 66.6 °F /  19.2 °C 29.93 in /  1013.4 hPa Calm     84 % 0.00 in /  0 mm
21:43 71.6 °F /  22 °C 66.5 °F /  19.2 °C 29.93 in /  1013.4 hPa Calm     84 % 0.00 in /  0 mm
21:48 71.6 °F /  22 °C 66.5 °F /  19.2 °C 29.93 in /  1013.4 hPa Calm     84 % 0.00 in /  0 mm
21:53 71.5 °F /  21.9 °C 66.4 °F /  19.1 °C 29.93 in /  1013.4 hPa Calm     84 % 0.00 in /  0 mm
21:58 71.4 °F /  21.9 °C 66.3 °F /  19.1 °C 29.93 in /  1013.4 hPa Calm     84 % 0.00 in /  0 mm
22:03 71.3 °F /  21.8 °C 66.2 °F /  19 °C 29.94 in /  1013.8 hPa Calm     84 % 0.00 in /  0 mm
22:08 71.2 °F /  21.8 °C 66.1 °F /  18.9 °C 29.94 in /  1013.8 hPa Calm     84 % 0.00 in /  0 mm
22:13 71.1 °F /  21.7 °C 66.4 °F /  19.1 °C 29.94 in /  1013.8 hPa SE 0.8 mph /  1.3 km/h 1.0 mph /  1.6 km/h 85 % 0.00 in /  0 mm
22:18 71.0 °F /  21.7 °C 66.6 °F /  19.2 °C 29.94 in /  1013.8 hPa Calm     86 % 0.00 in /  0 mm
22:23 70.9 °F /  21.6 °C 66.5 °F /  19.2 °C 29.95 in /  1014.1 hPa Calm     86 % 0.00 in /  0 mm
22:28 70.8 °F /  21.6 °C 66.4 °F /  19.1 °C 29.94 in /  1013.8 hPa Calm     86 % 0.00 in /  0 mm
22:33 70.7 °F /  21.5 °C 66.3 °F /  19.1 °C 29.94 in /  1013.8 hPa Calm     86 % 0.00 in /  0 mm
22:36 70.6 °F /  21.4 °C 66.2 °F /  19 °C 29.94 in /  1013.8 hPa Calm     86 % 0.00 in /  0 mm
22:41 70.6 °F /  21.4 °C 66.9 °F /  19.4 °C 29.94 in /  1013.8 hPa Calm     88 % 0.00 in /  0 mm
22:46 70.5 °F /  21.4 °C 67.1 °F /  19.5 °C 29.94 in /  1013.8 hPa Calm     89 % 0.00 in /  0 mm
22:51 70.4 °F /  21.3 °C 67.0 °F /  19.4 °C 29.94 in /  1013.8 hPa Calm     89 % 0.00 in /  0 mm
22:56 70.3 °F /  21.3 °C 66.9 °F /  19.4 °C 29.94 in /  1013.8 hPa Calm     89 % 0.00 in /  0 mm
23:01 70.2 °F /  21.2 °C 66.5 °F /  19.2 °C 29.94 in /  1013.8 hPa Calm     88 % 0.00 in /  0 mm
23:06 70.2 °F /  21.2 °C 66.8 °F /  19.3 °C 29.94 in /  1013.8 hPa Calm     89 % 0.00 in /  0 mm
23:11 70.1 °F /  21.2 °C 66.7 °F /  19.3 °C 29.94 in /  1013.8 hPa Calm     89 % 0.00 in /  0 mm
23:21 70.1 °F /  21.2 °C 67.0 °F /  19.4 °C 29.94 in /  1013.8 hPa Calm   2.3 mph /  3.7 km/h 90 % 0.00 in /  0 mm
23:23 70.1 °F /  21.2 °C 67.0 °F /  19.4 °C 29.94 in /  1013.8 hPa Calm     90 % 0.00 in /  0 mm
23:26 70.1 °F /  21.2 °C 67.0 °F /  19.4 °C 29.94 in /  1013.8 hPa Calm     90 % 0.00 in /  0 mm
23:29 70.1 °F /  21.2 °C 67.3 °F /  19.6 °C 29.94 in /  1013.8 hPa Calm     91 % 0.00 in /  0 mm
23:33 70.1 °F /  21.2 °C 67.3 °F /  19.6 °C 29.94 in /  1013.8 hPa Calm     91 % 0.00 in /  0 mm
23:38 70.2 °F /  21.2 °C 67.8 °F /  19.9 °C 29.93 in /  1013.4 hPa Calm     92 % 0.00 in /  0 mm
23:43 70.2 °F /  21.2 °C 67.8 °F /  19.9 °C 29.93 in /  1013.4 hPa Calm     92 % 0.00 in /  0 mm
23:48 70.3 °F /  21.3 °C 68.2 °F /  20.1 °C 29.93 in /  1013.4 hPa SE 0.2 mph /  0.3 km/h   93 % 0.00 in /  0 mm
23:53 70.4 °F /  21.3 °C 68.3 °F /  20.2 °C 29.93 in /  1013.4 hPa Calm     93 % 0.00 in /  0 mm
23:58 70.5 °F /  21.4 °C 68.4 °F /  20.2 °C 29.93 in /  1013.4 hPa Calm     93 % 0.00 in /  0 mm
Crab Meadow Weather
Compliments of Weather Underground - 3 mb

Script developed by  Jim McMurry - jmcmurry@mwt.net Adapted for the template by  Wim van der Kuil - Leuven-Template.eu

Weather Terms: Heat Advisory - Maximum heat index of 105 to 110°F with a minimum of 75°F for two or more consecutive days.